Historyczne dane pomiarowe

Dodano dane terminowe – wersja testowa.

Dane z okresu 1951-2019

Wersja bazy: 1.34 [2019-03-16, lista zmian], aktualizacja planowana na 2019-04-15

Dane meteo z obszaru Polski uzyskane na podstawie danych udostępnionych przez Instytut Meteorologii i Gospodarki Wodnej – Państwowy Instytut Badawczy.

 

Wybierz Datę:    

       

TemperaturaWilgotnośćWiatrCiśnienieOpadyŚniegCzas trwania zjawisk
 Stacja t tx tn tng RH VA  wxwx mslp ppp RRR   cm mm wxwxwxwxwxwxwx
1961-02-14 3.6 7.7 2.2 1.2 97.3- 5.3 0.3---- 0.0------------
1961-02-15 4.6 13.6 -1.4 -5.0 89.0- 0.0 0.3---- 0.0------------
1961-02-16 6.8 10.1 2.2 -2.5 92.8- 8.0 3.0---- 0.0------------
1961-02-17 5.2 10.7 2.5 3.5 88.8- 4.0 1.0---- 0.0------------
1961-02-18 4.6 12.2 -4.0 -6.8 82.0- 0.0 1.3---- 0.0------------
1961-02-19 5.4 7.2 3.8 -0.8 92.8- 8.0 2.7---- 0.9------------
1961-02-20 4.8 6.1 3.9 3.7 96.8- 8.0 1.7---- 0.1------------
1961-02-21 5.1 10.3 3.3 2.3 80.3- 3.7 1.7---- 0.0------------
1961-02-22 1.9 7.0 -1.8 -6.1 89.8- 3.3 1.7---- 0.0------------
1961-02-23 1.0 7.6 -1.3 -4.0 96.3- 0.0 2.0---- 0.0------------
1961-02-24 0.3 7.7 -3.1 -6.2 97.5- 5.3 0.7---- 0.0------------
1961-02-25 2.2 7.8 -3.9 -5.8 83.8- 0.0 3.3---- 0.0------------
1961-02-26 2.9 11.4 -2.6 -7.1 82.0- 0.0 0.3---- 0.0------------
1961-02-27 7.0 12.7 0.0 -4.0 79.8- 7.0 1.7---- 0.6------------
1961-02-28 6.5 11.6 4.0 5.0 80.5- 8.0 5.3---- 0.6------------
1961-03-01 4.3 6.1 3.6- 87.0- 7.3 2.3---- 0.3------------
1961-03-02 3.2 6.5 2.2- 84.0- 6.0 3.0---- 1.0------------
1961-03-03 5.8 8.1 1.9- 93.8- 8.0 1.3---- 3.7------------
1961-03-04 5.3 7.9 4.3- 86.3- 4.0 3.3---- 0.0------------
1961-03-05 6.7 10.6 4.1- 78.3- 4.7 3.7---- 0.0------------
1961-03-06 6.0 10.7 3.8- 85.0- 4.3 2.3---- 0.0------------
1961-03-07 8.6 15.0 0.4- 73.5- 2.7 2.3---- 0.0------------
1961-03-08 7.7 14.4 2.5- 71.3- 0.0 2.7---- 0.0------------
1961-03-09 10.2 16.4 2.5- 57.0- 2.0 3.3---- 0.0------------
1961-03-10 9.2 20.4 -0.9- 62.0- 1.0 0.3---- 0.0------------
1961-03-11 10.3 13.4 8.6- 71.3- 4.7 3.0---- 0.0------------
1961-03-12 13.7 17.0 7.4- 53.3- 7.3 5.7---- 1.6------------
1961-03-13 7.9 16.9 6.6- 64.8- 5.0 6.0---- 2.4------------
1961-03-14 8.8 10.8 5.6- 88.5- 8.0 3.3---- 3.0------------
1961-03-15 10.3 14.6 8.8- 84.3- 4.7 4.7---- 0.0------------
180.0 ms

 

Źródłem pochodzenia danych jest Instytut Meteorologii i Gospodarki Wodnej – Państwowy Instytut Badawczy. Dane Instytutu Meteorologii i Gospodarki Wodnej – Państwowego Instytutu Badawczego zostały przetworzone.

Dane źródłowe można odnaleźć na stronie https://dane.imgw.pl